aviador You're here:

KMBY Decoded Metar

in
Report Time2018-02-22 06:35:00
UTC Time2018-02-22 06:40:51
Flight Rules mvfr MVFR
WindCalm
Visibility9999 m
Phenomena:N/A
Clouds:Overcast 014 Hf
Expected CloudBase > 1,200 ft AGL from Temp-Dew spread
Ceiling1,400 ft
Temp-1°C
Dew Point-4°C (80% RH)
AAT-3.5°C
QNH1032 hPa
Raw Report
KMBY 220635Z AUTO 00000KT 7SM UP OVC014 M01/M04 A3047 RMK AO2=

Extra information for KMBY:More info

Social comments